createdAt,value
2023-09-07T00:00:19.491Z,21.21
2023-09-07T00:06:30.057Z,21.07
2023-09-07T00:08:57.965Z,20.75
2023-09-07T00:11:25.876Z,20.57
2023-09-07T00:13:53.842Z,20.45
2023-09-07T00:16:21.856Z,20.56
2023-09-07T00:18:50.517Z,20.65
2023-09-07T00:21:18.575Z,20.83
2023-09-07T00:23:47.910Z,20.89
2023-09-07T00:26:16.239Z,20.91
2023-09-07T00:28:44.269Z,20.91
2023-09-07T00:31:12.302Z,20.82
2023-09-07T00:33:40.415Z,20.60
2023-09-07T00:36:08.378Z,20.71
2023-09-07T00:38:36.338Z,20.80
2023-09-07T00:41:05.738Z,20.67
2023-09-07T00:43:33.679Z,20.59
2023-09-07T00:46:01.707Z,20.52
2023-09-07T00:48:29.995Z,20.27
2023-09-07T00:50:58.232Z,20.30
2023-09-07T00:53:26.491Z,20.16
2023-09-07T00:55:54.454Z,20.08
2023-09-07T00:58:23.953Z,20.11
2023-09-07T01:00:52.137Z,19.81
2023-09-07T01:03:20.148Z,19.61
2023-09-07T01:05:53.233Z,19.88
2023-09-07T01:08:25.948Z,19.92
2023-09-07T01:10:54.828Z,19.87
2023-09-07T01:13:24.267Z,19.72
2023-09-07T01:15:52.706Z,19.84
2023-09-07T01:18:25.121Z,19.91
2023-09-07T01:20:54.880Z,19.91
2023-09-07T01:23:24.704Z,19.99
2023-09-07T01:25:53.561Z,20.09
2023-09-07T01:28:22.689Z,20.14
2023-09-07T01:30:50.640Z,19.99
2023-09-07T01:33:18.603Z,20.06
2023-09-07T01:35:47.574Z,19.98
2023-09-07T01:38:15.608Z,20.02
2023-09-07T01:40:44.926Z,19.91
2023-09-07T01:43:12.878Z,19.88
2023-09-07T01:45:40.921Z,19.93
2023-09-07T01:48:10.783Z,19.63
2023-09-07T01:50:38.812Z,19.48
2023-09-07T01:53:06.794Z,19.60
2023-09-07T01:55:34.878Z,19.68
2023-09-07T01:58:04.442Z,19.78
2023-09-07T02:00:32.375Z,19.60
2023-09-07T02:03:00.463Z,19.66
2023-09-07T02:05:28.543Z,19.67
2023-09-07T02:07:56.587Z,19.57
2023-09-07T02:10:25.929Z,19.63
2023-09-07T02:12:53.018Z,19.69
2023-09-07T02:15:22.425Z,19.66
2023-09-07T02:17:50.568Z,19.58
2023-09-07T02:20:20.086Z,19.52
2023-09-07T02:22:48.166Z,19.39
2023-09-07T02:25:16.147Z,19.35
2023-09-07T02:27:44.259Z,19.36
2023-09-07T02:30:12.764Z,19.38
2023-09-07T02:32:45.118Z,19.22
2023-09-07T02:35:13.142Z,19.31
2023-09-07T02:37:41.067Z,19.38
2023-09-07T02:40:10.766Z,19.38
2023-09-07T02:42:38.712Z,19.26
2023-09-07T02:45:07.776Z,19.29
2023-09-07T02:47:35.976Z,19.33
2023-09-07T02:50:06.604Z,19.31
2023-09-07T02:52:34.528Z,19.30
2023-09-07T02:55:02.526Z,19.18
2023-09-07T02:57:30.484Z,19.11
2023-09-07T02:59:58.539Z,19.08
2023-09-07T03:02:26.741Z,19.12
2023-09-07T03:04:56.273Z,19.12
2023-09-07T03:07:25.600Z,19.13
2023-09-07T03:09:54.247Z,19.15
2023-09-07T03:12:22.730Z,19.19
2023-09-07T03:14:51.550Z,19.10
2023-09-07T03:17:19.635Z,19.01
2023-09-07T03:19:47.756Z,19.00
2023-09-07T03:22:16.124Z,19.00
2023-09-07T03:24:45.805Z,18.91
2023-09-07T03:27:13.851Z,18.93
2023-09-07T03:29:41.806Z,18.86
2023-09-07T03:32:09.940Z,18.78
2023-09-07T03:34:38.029Z,18.67
2023-09-07T03:37:07.505Z,18.61
2023-09-07T03:39:35.687Z,18.42
2023-09-07T03:42:05.241Z,18.38
2023-09-07T03:44:33.199Z,18.34
2023-09-07T03:47:03.226Z,18.39
2023-09-07T03:49:31.330Z,18.30
2023-09-07T03:51:59.346Z,18.29
2023-09-07T03:54:27.303Z,18.24
2023-09-07T03:56:55.385Z,18.38
2023-09-07T03:59:24.742Z,18.44
2023-09-07T04:01:52.828Z,18.56
2023-09-07T04:04:21.258Z,18.55
2023-09-07T04:06:49.670Z,18.52
2023-09-07T04:09:17.606Z,18.47
2023-09-07T04:15:35.599Z,18.40
2023-09-07T04:18:03.617Z,18.31
2023-09-07T04:20:31.600Z,18.30
2023-09-07T04:22:59.546Z,18.23
2023-09-07T04:25:27.757Z,18.21
2023-09-07T04:27:57.812Z,18.22
2023-09-07T04:30:26.031Z,18.17
2023-09-07T04:32:55.463Z,18.11
2023-09-07T04:35:23.563Z,18.18
2023-09-07T04:37:51.612Z,18.24
2023-09-07T04:40:19.722Z,18.32
2023-09-07T04:42:47.662Z,18.29
2023-09-07T04:45:15.800Z,18.18
2023-09-07T04:47:43.775Z,18.17
2023-09-07T04:50:14.659Z,18.21
2023-09-07T04:52:42.682Z,18.12
2023-09-07T04:55:11.027Z,18.01
2023-09-07T04:57:39.289Z,18.07
2023-09-07T05:00:09.013Z,17.91
2023-09-07T05:02:41.509Z,17.74
2023-09-07T05:05:10.274Z,17.82
2023-09-07T05:07:39.604Z,17.98
2023-09-07T05:10:09.836Z,18.00
2023-09-07T05:12:37.976Z,18.02
2023-09-07T05:15:07.942Z,18.03
2023-09-07T05:17:36.038Z,18.03
2023-09-07T05:20:04.783Z,18.10
2023-09-07T05:22:35.510Z,18.07
2023-09-07T05:25:05.315Z,18.06
2023-09-07T05:27:33.297Z,17.98
2023-09-07T05:30:01.257Z,18.09
2023-09-07T05:32:29.215Z,17.85
2023-09-07T05:34:57.159Z,17.91
2023-09-07T05:37:25.137Z,17.98
2023-09-07T05:39:53.072Z,17.98
2023-09-07T05:42:22.526Z,18.01
2023-09-07T05:44:50.464Z,18.15
2023-09-07T05:47:18.852Z,18.21
2023-09-07T05:49:46.985Z,18.29
2023-09-07T05:52:15.008Z,18.35
2023-09-07T05:54:43.023Z,18.36
2023-09-07T05:57:11.110Z,18.47
2023-09-07T05:59:40.408Z,18.52
2023-09-07T06:02:09.031Z,18.57
2023-09-07T06:04:37.325Z,18.62
2023-09-07T06:07:05.602Z,18.67
2023-09-07T06:09:33.571Z,18.76
2023-09-07T06:12:01.533Z,18.87
2023-09-07T06:14:29.525Z,18.92
2023-09-07T06:16:58.968Z,18.93
2023-09-07T06:19:27.013Z,19.02
2023-09-07T06:21:54.990Z,19.10
2023-09-07T06:24:23.011Z,19.15
2023-09-07T06:26:51.117Z,19.22
2023-09-07T06:29:19.062Z,19.20
2023-09-07T06:31:47.135Z,19.21
2023-09-07T06:34:16.616Z,19.30
2023-09-07T06:36:48.320Z,19.32
2023-09-07T06:39:16.629Z,19.36
2023-09-07T06:41:47.634Z,19.37
2023-09-07T06:44:18.508Z,19.46
2023-09-07T06:46:46.582Z,19.51
2023-09-07T06:49:16.257Z,19.60
2023-09-07T06:51:44.221Z,19.63
2023-09-07T06:54:12.221Z,19.63
2023-09-07T06:56:40.194Z,19.78
2023-09-07T06:59:08.148Z,19.84
2023-09-07T07:01:36.724Z,19.89
2023-09-07T07:04:05.132Z,19.95
2023-09-07T07:06:34.636Z,19.99
2023-09-07T07:09:02.569Z,20.05
2023-09-07T07:11:30.545Z,20.12
2023-09-07T07:13:58.540Z,20.23
2023-09-07T07:16:26.637Z,20.29
2023-09-07T07:18:54.651Z,20.32
2023-09-07T07:21:22.643Z,20.31
2023-09-07T07:23:51.985Z,20.43
2023-09-07T07:26:19.943Z,20.49
2023-09-07T07:28:47.891Z,20.52
2023-09-07T07:31:15.931Z,20.58
2023-09-07T07:33:43.941Z,20.64
2023-09-07T07:36:11.961Z,20.70
2023-09-07T07:38:40.538Z,20.76
2023-09-07T07:41:09.987Z,20.82
2023-09-07T07:43:38.006Z,20.92
2023-09-07T07:46:06.227Z,20.98
2023-09-07T07:48:36.398Z,21.04
2023-09-07T07:51:05.334Z,21.16
2023-09-07T07:53:33.729Z,21.24
2023-09-07T07:56:01.994Z,21.36
2023-09-07T07:58:31.496Z,21.43
2023-09-07T08:01:00.147Z,21.47
2023-09-07T08:03:28.466Z,21.55
2023-09-07T08:05:56.579Z,21.66
2023-09-07T08:08:24.700Z,21.77
2023-09-07T08:10:52.864Z,21.87
2023-09-07T08:13:21.066Z,21.95
2023-09-07T08:15:50.487Z,22.01
2023-09-07T08:18:18.823Z,22.10
2023-09-07T08:20:46.961Z,22.28
2023-09-07T08:23:14.930Z,22.37
2023-09-07T08:25:47.656Z,22.41
2023-09-07T08:28:17.110Z,22.53
2023-09-07T08:30:45.105Z,22.60
2023-09-07T08:33:14.573Z,22.67
2023-09-07T08:35:45.349Z,22.69
2023-09-07T08:38:14.297Z,22.73
2023-09-07T08:40:43.021Z,22.85
2023-09-07T08:43:13.426Z,22.91
2023-09-07T08:45:44.687Z,23.05
2023-09-07T08:48:16.644Z,23.19
2023-09-07T08:50:45.158Z,23.23
2023-09-07T08:53:13.097Z,23.27
2023-09-07T08:55:41.110Z,23.38
2023-09-07T08:58:09.049Z,23.60
2023-09-07T09:00:37.118Z,23.80
2023-09-07T09:03:06.050Z,23.86
2023-09-07T09:05:36.794Z,23.98
2023-09-07T09:08:06.933Z,24.19
2023-09-07T09:10:35.852Z,24.28
2023-09-07T09:13:03.965Z,24.38
2023-09-07T09:15:31.931Z,24.53
2023-09-07T09:18:00.022Z,24.73
2023-09-07T09:20:28.667Z,24.94
2023-09-07T09:22:58.387Z,25.15
2023-09-07T09:25:27.839Z,25.25
2023-09-07T09:27:55.789Z,25.41
2023-09-07T09:30:23.725Z,25.54
2023-09-07T09:32:52.254Z,25.74
2023-09-07T09:35:20.362Z,25.85
2023-09-07T09:37:49.720Z,25.96
2023-09-07T09:40:19.514Z,26.16
2023-09-07T09:42:47.616Z,26.32
2023-09-07T09:45:15.581Z,26.49
2023-09-07T09:47:44.497Z,26.55
2023-09-07T09:50:13.794Z,26.73
2023-09-07T09:52:41.902Z,26.81
2023-09-07T09:55:14.184Z,27.09
2023-09-07T09:57:43.767Z,27.23
2023-09-07T10:00:22.659Z,27.30
2023-09-07T10:02:56.831Z,27.32
2023-09-07T10:05:27.196Z,27.43
2023-09-07T10:07:55.598Z,27.44
2023-09-07T10:10:23.719Z,27.37
2023-09-07T10:12:55.806Z,27.64
2023-09-07T10:15:28.521Z,27.65
2023-09-07T10:18:07.155Z,27.74
2023-09-07T10:20:50.273Z,27.92
2023-09-07T10:23:18.350Z,28.10
2023-09-07T10:25:50.513Z,28.01
2023-09-07T10:28:25.245Z,28.08
2023-09-07T10:31:04.707Z,28.22
2023-09-07T10:33:33.676Z,28.33
2023-09-07T10:36:02.651Z,28.42
2023-09-07T10:38:30.666Z,28.34
2023-09-07T10:40:59.897Z,28.21
2023-09-07T10:43:30.143Z,28.38
2023-09-07T10:45:59.941Z,28.57
2023-09-07T10:48:28.409Z,28.73
2023-09-07T10:50:56.562Z,28.80
2023-09-07T10:53:29.345Z,28.85
2023-09-07T10:55:59.700Z,28.87
2023-09-07T10:58:30.932Z,28.96
2023-09-07T11:00:59.904Z,28.94
2023-09-07T11:03:29.121Z,28.94
2023-09-07T11:05:59.103Z,28.87
2023-09-07T11:08:27.283Z,29.14
2023-09-07T11:10:55.227Z,29.24
2023-09-07T11:13:24.214Z,29.06
2023-09-07T11:15:56.060Z,29.32
2023-09-07T11:18:24.572Z,29.38
2023-09-07T11:20:53.741Z,29.49
2023-09-07T11:23:23.033Z,29.51
2023-09-07T11:25:53.254Z,29.50
2023-09-07T11:28:23.883Z,29.56
2023-09-07T11:30:54.402Z,29.57
2023-09-07T11:33:23.513Z,29.60
2023-09-07T11:35:51.658Z,29.59
2023-09-07T11:38:20.413Z,29.49
2023-09-07T11:40:48.905Z,29.59
2023-09-07T11:43:18.048Z,29.72
2023-09-07T11:45:48.097Z,29.75
2023-09-07T11:48:17.537Z,29.84
2023-09-07T11:50:45.624Z,30.30
2023-09-07T11:53:13.771Z,30.46
2023-09-07T11:55:44.501Z,30.55
2023-09-07T11:58:12.430Z,30.64
2023-09-07T12:00:42.068Z,30.79
2023-09-07T12:03:10.065Z,30.72
2023-09-07T12:05:41.064Z,30.70
2023-09-07T12:08:09.139Z,30.85
2023-09-07T12:10:37.102Z,30.97
2023-09-07T12:13:05.388Z,29.90
2023-09-07T12:15:33.387Z,30.75
2023-09-07T12:18:01.753Z,30.68
2023-09-07T12:20:29.910Z,30.77
2023-09-07T12:22:59.238Z,31.32
2023-09-07T12:25:27.722Z,31.56
2023-09-07T12:27:56.031Z,31.32
2023-09-07T12:30:25.357Z,31.79
2023-09-07T12:32:53.835Z,31.78
2023-09-07T12:35:22.251Z,31.58
2023-09-07T12:37:50.202Z,31.48
2023-09-07T12:40:19.541Z,31.29
2023-09-07T12:42:48.534Z,31.68
2023-09-07T12:45:16.720Z,32.06
2023-09-07T12:47:44.819Z,31.97
2023-09-07T12:50:13.331Z,32.36
2023-09-07T12:52:41.370Z,32.35
2023-09-07T12:55:09.874Z,32.16
2023-09-07T12:57:39.230Z,32.25
2023-09-07T13:00:08.465Z,32.55
2023-09-07T13:02:36.536Z,32.28
2023-09-07T13:05:06.540Z,32.41
2023-09-07T13:07:35.652Z,32.70
2023-09-07T13:10:05.364Z,32.63
2023-09-07T13:12:33.767Z,32.78
2023-09-07T13:15:03.726Z,32.91
2023-09-07T13:17:32.018Z,33.04
2023-09-07T13:19:59.986Z,33.13
2023-09-07T13:22:27.970Z,33.18
2023-09-07T13:24:55.992Z,32.74
2023-09-07T13:27:23.975Z,32.89
2023-09-07T13:29:51.995Z,33.09
2023-09-07T13:32:21.418Z,33.11
2023-09-07T13:34:49.392Z,33.44
2023-09-07T13:37:17.395Z,33.17
2023-09-07T13:39:45.404Z,33.46
2023-09-07T13:42:13.386Z,33.42
2023-09-07T13:44:41.702Z,33.54
2023-09-07T13:47:09.977Z,33.71
2023-09-07T13:49:39.360Z,33.38
2023-09-07T13:52:07.857Z,33.47
2023-09-07T13:54:35.799Z,33.35
2023-09-07T13:57:03.778Z,33.44
2023-09-07T13:59:34.449Z,33.86
2023-09-07T14:02:02.541Z,33.53
2023-09-07T14:04:32.157Z,33.74
2023-09-07T14:07:01.529Z,33.87
2023-09-07T14:09:29.694Z,34.19
2023-09-07T14:11:57.647Z,33.93
2023-09-07T14:14:25.641Z,34.06
2023-09-07T14:16:58.082Z,33.96
2023-09-07T14:19:28.633Z,34.03
2023-09-07T14:21:56.583Z,33.98
2023-09-07T14:24:26.129Z,33.98
2023-09-07T14:26:53.241Z,34.09
2023-09-07T14:29:21.253Z,34.39
2023-09-07T14:31:49.193Z,34.64
2023-09-07T14:34:17.142Z,34.52
2023-09-07T14:36:45.148Z,34.49
2023-09-07T14:39:13.366Z,34.61
2023-09-07T14:41:44.367Z,34.76
2023-09-07T14:44:12.297Z,34.43
2023-09-07T14:46:40.342Z,34.64
2023-09-07T14:49:08.335Z,34.86
2023-09-07T14:51:36.283Z,34.89
2023-09-07T14:54:04.227Z,34.85
2023-09-07T14:56:36.389Z,35.06
2023-09-07T14:59:05.931Z,35.01
2023-09-07T15:01:34.173Z,35.08
2023-09-07T15:04:02.221Z,34.79
2023-09-07T15:06:32.082Z,35.00
2023-09-07T15:09:00.821Z,35.15
2023-09-07T15:11:28.901Z,34.68
2023-09-07T15:13:56.979Z,34.78
2023-09-07T15:16:26.584Z,34.93
2023-09-07T15:18:54.809Z,34.81
2023-09-07T15:21:23.069Z,35.13
2023-09-07T15:23:51.002Z,34.94
2023-09-07T15:26:19.011Z,34.82
2023-09-07T15:28:47.058Z,35.11
2023-09-07T15:31:15.093Z,35.40
2023-09-07T15:33:44.506Z,35.78
2023-09-07T15:36:14.683Z,35.76
2023-09-07T15:38:42.905Z,36.04
2023-09-07T15:41:10.956Z,35.61
2023-09-07T15:43:38.976Z,35.80
2023-09-07T15:46:07.016Z,35.58
2023-09-07T15:48:35.402Z,35.74
2023-09-07T15:51:05.049Z,35.50
2023-09-07T15:53:34.742Z,35.40
2023-09-07T15:56:03.001Z,35.70
2023-09-07T15:58:31.422Z,36.10
2023-09-07T16:00:59.776Z,36.26
2023-09-07T16:03:27.790Z,36.42
2023-09-07T16:05:55.758Z,36.74
2023-09-07T16:08:26.858Z,36.96
2023-09-07T16:10:56.899Z,36.28
2023-09-07T16:13:24.917Z,36.18
2023-09-07T16:15:52.895Z,36.72
2023-09-07T16:18:21.357Z,36.98
2023-09-07T16:20:50.354Z,37.11
2023-09-07T16:23:18.397Z,37.01
2023-09-07T16:25:48.933Z,36.61
2023-09-07T16:28:17.972Z,36.03
2023-09-07T16:30:47.286Z,36.31
2023-09-07T16:33:15.296Z,36.46
2023-09-07T16:35:43.617Z,36.44
2023-09-07T16:38:11.687Z,36.91
2023-09-07T16:40:40.185Z,37.34
2023-09-07T16:43:09.616Z,36.47
2023-09-07T16:45:37.643Z,36.57
2023-09-07T16:48:06.277Z,36.97
2023-09-07T16:50:34.322Z,37.18
2023-09-07T16:53:02.312Z,37.09
2023-09-07T16:55:30.592Z,36.94
2023-09-07T16:57:58.714Z,36.39
2023-09-07T17:00:28.061Z,35.49
2023-09-07T17:02:56.181Z,34.98
2023-09-07T17:05:24.418Z,34.16
2023-09-07T17:07:52.368Z,33.05
2023-09-07T17:10:20.486Z,32.40
2023-09-07T17:12:48.422Z,31.95
2023-09-07T17:15:16.493Z,31.68
2023-09-07T17:17:45.870Z,31.50
2023-09-07T17:20:14.825Z,31.37
2023-09-07T17:22:46.862Z,31.25
2023-09-07T17:25:14.993Z,31.17
2023-09-07T17:27:43.770Z,30.69
2023-09-07T17:30:12.208Z,30.61
2023-09-07T17:32:40.410Z,30.14
2023-09-07T17:35:10.180Z,30.19
2023-09-07T17:37:38.143Z,30.14
2023-09-07T17:40:07.370Z,29.96
2023-09-07T17:42:35.468Z,29.73
2023-09-07T17:45:03.404Z,29.46
2023-09-07T17:47:31.441Z,29.27
2023-09-07T17:49:59.510Z,29.26
2023-09-07T17:52:28.877Z,29.15
2023-09-07T17:54:56.876Z,29.09
2023-09-07T17:57:24.873Z,29.05
2023-09-07T17:59:53.418Z,28.80
2023-09-07T18:02:23.491Z,28.35
2023-09-07T18:04:52.496Z,28.18
2023-09-07T18:07:20.576Z,28.03
2023-09-07T18:09:49.957Z,27.80
2023-09-07T18:12:17.930Z,27.78
2023-09-07T18:14:46.032Z,27.84
2023-09-07T18:17:13.994Z,27.84
2023-09-07T18:19:41.972Z,27.63
2023-09-07T18:22:11.086Z,27.49
2023-09-07T18:24:39.421Z,27.25
2023-09-07T18:27:08.908Z,27.02
2023-09-07T18:29:36.858Z,26.85
2023-09-07T18:32:05.033Z,26.65
2023-09-07T18:34:34.740Z,26.56
2023-09-07T18:37:02.838Z,26.31
2023-09-07T18:39:30.849Z,26.12
2023-09-07T18:41:59.052Z,26.09
2023-09-07T18:44:29.008Z,25.92
2023-09-07T18:46:57.008Z,25.64
2023-09-07T18:49:25.712Z,25.83
2023-09-07T18:51:53.645Z,25.98
2023-09-07T18:54:21.635Z,25.53
2023-09-07T18:56:49.779Z,25.37
2023-09-07T18:59:18.542Z,25.53
2023-09-07T19:01:49.890Z,25.68
2023-09-07T19:04:17.922Z,25.84
2023-09-07T19:06:45.871Z,25.81
2023-09-07T19:09:13.855Z,25.83
2023-09-07T19:11:41.798Z,25.78
2023-09-07T19:14:09.767Z,25.81
2023-09-07T19:16:37.835Z,25.82
2023-09-07T19:19:07.456Z,25.17
2023-09-07T19:21:35.887Z,25.22
2023-09-07T19:24:04.052Z,25.15
2023-09-07T19:26:33.488Z,25.19
2023-09-07T19:29:04.516Z,25.12
2023-09-07T19:31:33.543Z,24.57
2023-09-07T19:34:02.494Z,24.59
2023-09-07T19:36:32.865Z,24.68
2023-09-07T19:39:01.795Z,24.31
2023-09-07T19:41:30.473Z,24.33
2023-09-07T19:43:59.025Z,24.14
2023-09-07T19:46:27.095Z,23.45
2023-09-07T19:48:55.552Z,22.82
2023-09-07T19:51:24.557Z,23.13
2023-09-07T19:53:53.939Z,22.96
2023-09-07T19:56:24.906Z,23.12
2023-09-07T19:58:54.478Z,23.21
2023-09-07T20:01:23.288Z,23.14
2023-09-07T20:03:54.704Z,23.08
2023-09-07T20:06:26.133Z,23.04
2023-09-07T20:08:55.919Z,23.31
2023-09-07T20:11:23.988Z,23.39
2023-09-07T20:13:52.075Z,23.54
2023-09-07T20:16:20.181Z,23.73
2023-09-07T20:18:48.235Z,23.85
2023-09-07T20:21:16.317Z,23.79
2023-09-07T20:23:44.369Z,23.52
2023-09-07T20:26:14.075Z,23.58
2023-09-07T20:28:44.010Z,23.66
2023-09-07T20:31:12.369Z,23.66
2023-09-07T20:33:40.530Z,23.64
2023-09-07T20:36:09.130Z,23.57
2023-09-07T20:38:37.880Z,23.49
2023-09-07T20:41:06.224Z,23.46
2023-09-07T20:43:38.808Z,23.18
2023-09-07T20:46:07.830Z,23.23
2023-09-07T20:48:36.199Z,23.29
2023-09-07T20:51:05.850Z,23.23
2023-09-07T20:53:34.210Z,23.15
2023-09-07T20:56:02.188Z,23.08
2023-09-07T20:58:30.356Z,22.96
2023-09-07T21:01:03.678Z,22.91
2023-09-07T21:03:32.534Z,22.83
2023-09-07T21:06:00.972Z,22.82
2023-09-07T21:08:29.110Z,22.77
2023-09-07T21:10:57.138Z,22.69
2023-09-07T21:13:25.248Z,22.71
2023-09-07T21:15:53.211Z,22.71
2023-09-07T21:18:22.707Z,22.72
2023-09-07T21:20:50.684Z,22.65
2023-09-07T21:23:18.668Z,22.57
2023-09-07T21:25:46.670Z,22.45
2023-09-07T21:28:15.503Z,22.41
2023-09-07T21:30:43.537Z,22.40
2023-09-07T21:33:11.587Z,22.27
2023-09-07T21:35:40.988Z,22.15
2023-09-07T21:38:08.997Z,22.09
2023-09-07T21:40:37.374Z,21.98
2023-09-07T21:43:05.925Z,22.01
2023-09-07T21:45:33.979Z,21.94
2023-09-07T21:48:02.024Z,21.92
2023-09-07T21:50:30.036Z,21.87
2023-09-07T21:52:59.426Z,21.74
2023-09-07T21:55:27.469Z,21.65
2023-09-07T21:57:55.463Z,21.62
2023-09-07T22:00:23.551Z,21.58
2023-09-07T22:02:52.151Z,21.62
2023-09-07T22:05:20.384Z,21.44
2023-09-07T22:07:48.453Z,21.32
2023-09-07T22:10:17.831Z,21.30
2023-09-07T22:12:45.845Z,21.06
2023-09-07T22:15:13.911Z,21.10
2023-09-07T22:17:44.312Z,21.08
2023-09-07T22:20:12.585Z,21.01
2023-09-07T22:22:40.611Z,21.00
2023-09-07T22:25:09.297Z,20.97
2023-09-07T22:27:38.701Z,20.69
2023-09-07T22:30:08.324Z,20.82
2023-09-07T22:32:36.397Z,20.93
2023-09-07T22:35:05.903Z,21.08
2023-09-07T22:37:33.899Z,21.06
2023-09-07T22:40:01.885Z,21.08
2023-09-07T22:42:29.844Z,20.98
2023-09-07T22:44:59.245Z,20.99
2023-09-07T22:47:27.303Z,20.88
2023-09-07T22:49:55.389Z,20.89
2023-09-07T22:52:23.405Z,20.86
2023-09-07T22:54:51.388Z,20.77
2023-09-07T22:57:19.444Z,20.69
2023-09-07T22:59:47.573Z,20.71
2023-09-07T23:02:17.009Z,20.66
2023-09-07T23:04:45.190Z,20.65
2023-09-07T23:07:14.447Z,20.55
2023-09-07T23:09:43.938Z,20.49
2023-09-07T23:12:12.233Z,20.11
2023-09-07T23:14:40.647Z,20.11
2023-09-07T23:17:08.821Z,20.11
2023-09-07T23:19:38.322Z,20.02
2023-09-07T23:22:06.325Z,20.00
2023-09-07T23:24:34.361Z,19.99
2023-09-07T23:27:02.420Z,20.07
2023-09-07T23:29:30.473Z,20.12
2023-09-07T23:31:58.490Z,19.86
2023-09-07T23:34:28.358Z,19.80
2023-09-07T23:36:58.697Z,19.80
2023-09-07T23:39:26.748Z,19.82
2023-09-07T23:41:54.728Z,19.56
2023-09-07T23:44:22.956Z,19.74
2023-09-07T23:46:50.913Z,19.81
2023-09-07T23:49:18.961Z,19.91
2023-09-07T23:51:46.955Z,19.92
2023-09-07T23:54:17.293Z,19.97
2023-09-07T23:56:45.241Z,19.97
2023-09-07T23:59:13.195Z,19.90
